createdAt,value
2022-10-05T00:00:00.293Z,11.9
2022-10-05T00:05:00.301Z,11.8
2022-10-05T00:10:00.247Z,11.9
2022-10-05T00:15:00.249Z,11.9
2022-10-05T00:20:00.249Z,11.9
2022-10-05T00:25:00.234Z,11.9
2022-10-05T00:30:00.300Z,11.8
2022-10-05T00:35:00.209Z,11.8
2022-10-05T00:40:00.241Z,11.8
2022-10-05T00:45:00.198Z,11.8
2022-10-05T00:50:00.204Z,11.8
2022-10-05T00:55:00.231Z,11.8
2022-10-05T01:00:00.236Z,11.8
2022-10-05T01:05:00.233Z,11.8
2022-10-05T01:10:00.264Z,11.8
2022-10-05T01:15:00.253Z,11.8
2022-10-05T01:20:00.240Z,11.8
2022-10-05T01:25:00.239Z,11.8
2022-10-05T01:30:00.294Z,11.8
2022-10-05T01:35:00.143Z,11.8
2022-10-05T01:40:00.268Z,11.8
2022-10-05T01:45:00.138Z,11.9
2022-10-05T01:50:00.259Z,11.9
2022-10-05T01:55:00.214Z,11.9
2022-10-05T02:00:00.226Z,11.9
2022-10-05T02:05:02.615Z,11.9
2022-10-05T02:10:00.243Z,11.9
2022-10-05T02:15:00.142Z,11.9
2022-10-05T02:20:00.263Z,11.9
2022-10-05T02:25:00.246Z,12
2022-10-05T02:30:00.282Z,12
2022-10-05T02:35:00.208Z,12
2022-10-05T02:40:00.218Z,12
2022-10-05T02:45:00.153Z,12.1
2022-10-05T02:50:00.273Z,12.1
2022-10-05T02:55:00.141Z,12.1
2022-10-05T03:00:00.245Z,12.2
2022-10-05T03:05:00.249Z,12.2
2022-10-05T03:10:01.385Z,12.2
2022-10-05T03:15:00.219Z,12.2
2022-10-05T03:20:00.277Z,12.2
2022-10-05T03:25:00.250Z,12.2
2022-10-05T03:30:00.296Z,12.2
2022-10-05T03:35:00.282Z,12.2
2022-10-05T03:40:00.231Z,12.2
2022-10-05T03:45:00.248Z,12.2
2022-10-05T03:50:00.279Z,12.2
2022-10-05T03:55:00.239Z,12.2
2022-10-05T04:00:00.300Z,12.2
2022-10-05T04:05:00.261Z,12.2
2022-10-05T04:10:00.282Z,12.2
2022-10-05T04:15:00.401Z,12.2
2022-10-05T04:20:00.260Z,12.2
2022-10-05T04:25:00.201Z,12.1
2022-10-05T04:30:00.313Z,12.1
2022-10-05T04:35:00.267Z,12.1
2022-10-05T04:40:00.240Z,12.1
2022-10-05T04:45:00.240Z,12.1
2022-10-05T04:50:00.260Z,12.1
2022-10-05T04:55:00.233Z,12
2022-10-05T05:00:00.276Z,12.1
2022-10-05T05:05:00.251Z,12
2022-10-05T05:10:00.268Z,12
2022-10-05T05:15:00.268Z,12
2022-10-05T05:20:00.277Z,12
2022-10-05T05:25:00.250Z,12
2022-10-05T05:30:00.262Z,12
2022-10-05T05:35:00.252Z,12
2022-10-05T05:40:00.281Z,12.1
2022-10-05T05:45:00.286Z,12.1
2022-10-05T05:50:06.373Z,12.2
2022-10-05T05:55:00.257Z,12.2
2022-10-05T06:00:00.347Z,12.2
2022-10-05T06:05:00.242Z,12.2
2022-10-05T06:10:00.274Z,12.3
2022-10-05T06:15:00.272Z,12.3
2022-10-05T06:20:04.945Z,12.4
2022-10-05T06:25:00.262Z,12.4
2022-10-05T06:30:00.273Z,12.5
2022-10-05T06:35:00.317Z,12.6
2022-10-05T06:40:01.384Z,12.6
2022-10-05T06:45:00.241Z,12.6
2022-10-05T06:50:00.247Z,12.7
2022-10-05T06:55:00.232Z,12.8
2022-10-05T07:00:00.296Z,12.8
2022-10-05T07:05:00.271Z,12.9
2022-10-05T07:10:00.271Z,13
2022-10-05T07:15:00.261Z,13
2022-10-05T07:20:00.276Z,13.1
2022-10-05T07:25:00.226Z,13.2
2022-10-05T07:30:00.303Z,13.3
2022-10-05T07:35:00.280Z,13.4
2022-10-05T07:40:01.091Z,13.5
2022-10-05T07:45:00.292Z,13.5
2022-10-05T07:50:00.281Z,13.6
2022-10-05T07:55:00.265Z,13.6
2022-10-05T08:00:00.329Z,13.7
2022-10-05T08:05:00.269Z,13.8
2022-10-05T08:10:00.278Z,13.8
2022-10-05T08:15:00.256Z,13.8
2022-10-05T08:20:00.306Z,13.9
2022-10-05T08:25:00.286Z,14
2022-10-05T08:30:00.349Z,14.1
2022-10-05T08:35:00.259Z,14.2
2022-10-05T08:40:00.317Z,14.2
2022-10-05T08:45:00.281Z,14.3
2022-10-05T08:50:00.268Z,14.4
2022-10-05T08:55:00.274Z,14.5
2022-10-05T09:00:00.379Z,14.6
2022-10-05T09:05:00.288Z,14.6
2022-10-05T09:10:01.929Z,14.7
2022-10-05T09:15:23.786Z,14.8
2022-10-05T09:20:00.288Z,14.9
2022-10-05T09:25:00.252Z,15
2022-10-05T09:30:00.305Z,15.1
2022-10-05T09:35:00.254Z,15.2
2022-10-05T09:40:01.451Z,15.2
2022-10-05T09:45:00.395Z,15.3
2022-10-05T09:50:00.274Z,15.4
2022-10-05T09:55:00.245Z,15.4
2022-10-05T10:00:00.361Z,15.5
2022-10-05T10:05:00.252Z,15.6
2022-10-05T10:10:00.273Z,15.7
2022-10-05T10:15:02.815Z,15.8
2022-10-05T10:20:00.253Z,15.8
2022-10-05T10:25:00.227Z,15.9
2022-10-05T10:30:00.324Z,15.9
2022-10-05T10:35:00.209Z,16
2022-10-05T10:40:00.290Z,16.1
2022-10-05T10:45:00.306Z,16.2
2022-10-05T10:50:00.318Z,16.2
2022-10-05T10:55:00.274Z,16.3
2022-10-05T11:00:00.334Z,16.3
2022-10-05T11:05:00.286Z,16.4
2022-10-05T11:10:00.244Z,16.5
2022-10-05T11:15:00.253Z,16.5
2022-10-05T11:20:04.368Z,16.6
2022-10-05T11:25:00.287Z,16.6
2022-10-05T11:30:00.320Z,16.7
2022-10-05T11:35:00.304Z,16.8
2022-10-05T11:40:00.271Z,16.8
2022-10-05T11:45:00.248Z,16.9
2022-10-05T11:50:00.288Z,17
2022-10-05T11:55:11.658Z,17
2022-10-05T12:00:00.327Z,17.1
2022-10-05T12:05:00.269Z,17.1
2022-10-05T12:10:00.343Z,17.2
2022-10-05T12:15:00.282Z,17.4
2022-10-05T12:20:00.294Z,17.4
2022-10-05T12:25:00.240Z,17.5
2022-10-05T12:30:00.350Z,17.6
2022-10-05T12:35:02.122Z,17.6
2022-10-05T12:40:00.271Z,17.8
2022-10-05T12:45:00.262Z,17.8
2022-10-05T12:50:00.280Z,17.9
2022-10-05T12:55:00.273Z,18
2022-10-05T13:00:00.306Z,18.1
2022-10-05T13:05:00.249Z,18.2
2022-10-05T13:10:00.307Z,18.2
2022-10-05T13:15:00.257Z,18.3
2022-10-05T13:20:00.263Z,18.4
2022-10-05T13:25:00.254Z,18.5
2022-10-05T13:30:00.263Z,18.6
2022-10-05T13:35:00.258Z,18.7
2022-10-05T13:40:00.324Z,18.8
2022-10-05T13:45:00.251Z,18.9
2022-10-05T13:50:00.416Z,19
2022-10-05T13:55:00.253Z,19.1
2022-10-05T14:00:00.388Z,19.2
2022-10-05T14:05:00.200Z,19.4
2022-10-05T14:10:00.380Z,19.4
2022-10-05T14:15:00.224Z,19.5
2022-10-05T14:20:00.289Z,19.6
2022-10-05T14:25:00.272Z,19.7
2022-10-05T14:30:00.642Z,19.8
2022-10-05T14:35:00.273Z,19.8
2022-10-05T14:40:00.257Z,19.9
2022-10-05T14:45:00.257Z,20
2022-10-05T14:50:00.282Z,20
2022-10-05T14:55:00.274Z,20
2022-10-05T15:00:00.349Z,20
2022-10-05T15:05:00.263Z,20.1
2022-10-05T15:10:00.271Z,20.1
2022-10-05T15:15:00.271Z,20.1
2022-10-05T15:20:00.280Z,20.1
2022-10-05T15:25:00.233Z,20
2022-10-05T15:30:00.319Z,20
2022-10-05T15:35:00.253Z,20
2022-10-05T15:40:00.297Z,19.9
2022-10-05T15:45:00.253Z,19.8
2022-10-05T15:50:00.370Z,19.8
2022-10-05T15:55:00.229Z,19.7
2022-10-05T16:00:00.306Z,19.6
2022-10-05T16:05:04.628Z,19.5
2022-10-05T16:10:00.259Z,19.4
2022-10-05T16:15:00.251Z,19.3
2022-10-05T16:20:00.236Z,19.2
2022-10-05T16:25:00.212Z,19.2
2022-10-05T16:30:00.336Z,19.1
2022-10-05T16:35:00.240Z,19
2022-10-05T16:40:00.241Z,18.9
2022-10-05T16:45:00.289Z,18.9
2022-10-05T16:50:00.281Z,18.8
2022-10-05T16:55:00.244Z,18.7
2022-10-05T17:00:00.334Z,18.7
2022-10-05T17:05:00.256Z,18.6
2022-10-05T17:10:00.217Z,18.6
2022-10-05T17:15:00.205Z,18.6
2022-10-05T17:20:00.275Z,18.4
2022-10-05T17:25:00.230Z,18.4
2022-10-05T17:30:00.276Z,18.4
2022-10-05T17:35:00.251Z,18.3
2022-10-05T17:40:00.327Z,18.2
2022-10-05T17:45:00.265Z,18.2
2022-10-05T17:50:00.287Z,18.1
2022-10-05T17:55:00.199Z,18.1
2022-10-05T18:00:00.449Z,18.1
2022-10-05T18:05:00.241Z,18.1
2022-10-05T18:10:00.362Z,18.1
2022-10-05T18:15:00.271Z,18
2022-10-05T18:20:00.288Z,18
2022-10-05T18:25:00.304Z,18
2022-10-05T18:30:00.322Z,18
2022-10-05T18:35:02.144Z,17.9
2022-10-05T18:40:00.229Z,17.9
2022-10-05T18:45:00.260Z,17.9
2022-10-05T18:50:00.300Z,17.9
2022-10-05T18:55:00.282Z,17.9
2022-10-05T19:00:00.291Z,17.9
2022-10-05T19:05:00.294Z,17.8
2022-10-05T19:10:00.296Z,17.8
2022-10-05T19:15:00.194Z,17.8
2022-10-05T19:20:00.303Z,17.8
2022-10-05T19:25:00.234Z,17.8
2022-10-05T19:30:00.279Z,17.8
2022-10-05T19:35:00.325Z,17.8
2022-10-05T19:40:00.352Z,17.8
2022-10-05T19:45:00.260Z,17.7
2022-10-05T19:50:00.290Z,17.8
2022-10-05T19:55:00.277Z,17.7
2022-10-05T20:00:00.296Z,17.7
2022-10-05T20:05:00.209Z,17.7
2022-10-05T20:10:00.280Z,17.8
2022-10-05T20:15:00.289Z,17.8
2022-10-05T20:20:00.490Z,17.8
2022-10-05T20:25:00.295Z,17.8
2022-10-05T20:30:00.276Z,17.8
2022-10-05T20:35:00.227Z,17.8
2022-10-05T20:40:00.307Z,17.8
2022-10-05T20:45:00.265Z,17.8
2022-10-05T20:50:00.242Z,17.8
2022-10-05T20:55:00.236Z,17.8
2022-10-05T21:00:00.251Z,17.8
2022-10-05T21:05:00.250Z,17.8
2022-10-05T21:10:00.281Z,17.8
2022-10-05T21:15:05.167Z,17.8
2022-10-05T21:20:00.310Z,17.9
2022-10-05T21:25:00.213Z,17.9
2022-10-05T21:30:00.269Z,17.9
2022-10-05T21:35:00.254Z,18
2022-10-05T21:40:00.187Z,18
2022-10-05T21:45:00.153Z,18
2022-10-05T21:50:00.273Z,18
2022-10-05T21:55:00.144Z,18
2022-10-05T22:00:00.351Z,18
2022-10-05T22:05:00.188Z,18
2022-10-05T22:10:00.209Z,18
2022-10-05T22:15:00.147Z,18
2022-10-05T22:20:00.244Z,18
2022-10-05T22:25:00.215Z,17.8
2022-10-05T22:30:00.232Z,17.6
2022-10-05T22:35:00.202Z,17.5
2022-10-05T22:40:00.234Z,17.4
2022-10-05T22:45:00.203Z,17.2
2022-10-05T22:50:00.408Z,17.2
2022-10-05T22:55:00.206Z,17.1
2022-10-05T23:00:00.235Z,17
2022-10-05T23:05:00.239Z,17
2022-10-05T23:10:00.285Z,16.9
2022-10-05T23:15:00.419Z,16.8
2022-10-05T23:20:00.258Z,16.7
2022-10-05T23:25:00.217Z,16.7
2022-10-05T23:30:00.209Z,16.6
2022-10-05T23:35:00.204Z,16.6
2022-10-05T23:40:00.215Z,16.5
2022-10-05T23:45:00.245Z,16.3
2022-10-05T23:50:00.294Z,16
2022-10-05T23:55:00.143Z,15.8
